createdAt,value
2023-03-24T00:01:01.327Z,13.16
2023-03-24T00:03:30.132Z,13.15
2023-03-24T00:05:59.000Z,13.16
2023-03-24T00:08:26.058Z,13.15
2023-03-24T00:10:53.949Z,13.15
2023-03-24T00:13:21.005Z,13.11
2023-03-24T00:15:49.251Z,13.09
2023-03-24T00:18:16.294Z,13.06
2023-03-24T00:20:46.593Z,13.04
2023-03-24T00:23:14.367Z,13.01
2023-03-24T00:25:41.560Z,12.95
2023-03-24T00:28:10.434Z,12.93
2023-03-24T00:30:38.052Z,12.95
2023-03-24T00:33:05.123Z,12.94
2023-03-24T00:35:32.392Z,12.96
2023-03-24T00:37:59.540Z,12.95
2023-03-24T00:40:28.399Z,12.98
2023-03-24T00:42:55.582Z,12.98
2023-03-24T00:45:23.928Z,12.93
2023-03-24T00:47:54.876Z,12.92
2023-03-24T00:50:27.576Z,12.87
2023-03-24T00:52:55.642Z,12.85
2023-03-24T00:55:23.586Z,12.85
2023-03-24T00:57:51.286Z,12.85
2023-03-24T01:00:20.810Z,12.85
2023-03-24T01:02:48.967Z,12.85
2023-03-24T01:05:18.115Z,12.78
2023-03-24T01:07:45.254Z,12.78
2023-03-24T01:10:13.773Z,12.74
2023-03-24T01:12:41.245Z,12.73
2023-03-24T01:15:12.288Z,12.69
2023-03-24T01:17:39.502Z,12.69
2023-03-24T01:20:08.767Z,12.66
2023-03-24T01:22:38.028Z,12.61
2023-03-24T01:25:05.572Z,12.59
2023-03-24T01:27:32.620Z,12.57
2023-03-24T01:30:01.089Z,12.59
2023-03-24T01:32:29.113Z,12.60
2023-03-24T01:34:56.276Z,12.56
2023-03-24T01:37:24.484Z,12.51
2023-03-24T01:39:52.038Z,12.49
2023-03-24T01:42:20.439Z,12.47
2023-03-24T01:44:49.469Z,12.44
2023-03-24T01:47:17.579Z,12.44
2023-03-24T01:49:47.679Z,12.44
2023-03-24T01:52:16.617Z,12.45
2023-03-24T01:54:46.372Z,12.43
2023-03-24T01:57:13.794Z,12.40
2023-03-24T01:59:43.559Z,12.33
2023-03-24T02:02:10.736Z,12.30
2023-03-24T02:04:41.012Z,12.27
2023-03-24T02:07:13.097Z,12.26
2023-03-24T02:09:40.211Z,12.23
2023-03-24T02:12:07.582Z,12.20
2023-03-24T02:14:34.612Z,12.12
2023-03-24T02:17:05.267Z,12.09
2023-03-24T02:19:38.616Z,12.13
2023-03-24T02:22:08.623Z,12.15
2023-03-24T02:24:38.690Z,12.14
2023-03-24T02:27:10.043Z,12.11
2023-03-24T02:29:49.293Z,12.09
2023-03-24T02:32:19.336Z,12.06
2023-03-24T02:34:50.396Z,12.02
2023-03-24T02:37:19.123Z,12.04
2023-03-24T02:39:52.272Z,12.04
2023-03-24T02:42:22.530Z,12.01
2023-03-24T02:44:57.167Z,12.00
2023-03-24T02:47:25.678Z,11.95
2023-03-24T02:49:56.179Z,11.92
2023-03-24T02:52:23.560Z,11.91
2023-03-24T02:54:56.706Z,11.88
2023-03-24T02:57:31.693Z,11.87
2023-03-24T03:00:09.998Z,11.84
2023-03-24T03:02:39.896Z,11.84
2023-03-24T03:05:09.607Z,11.84
2023-03-24T03:07:38.495Z,11.85
2023-03-24T03:10:06.541Z,11.85
2023-03-24T03:12:35.333Z,11.83
2023-03-24T03:15:04.281Z,11.85
2023-03-24T03:17:33.500Z,11.84
2023-03-24T03:20:05.721Z,11.80
2023-03-24T03:22:37.401Z,11.76
2023-03-24T03:25:04.755Z,11.73
2023-03-24T03:27:39.388Z,11.73
2023-03-24T03:30:09.593Z,11.75
2023-03-24T03:32:40.591Z,11.74
2023-03-24T03:35:10.664Z,11.71
2023-03-24T03:37:47.271Z,11.70
2023-03-24T03:40:18.321Z,11.67
2023-03-24T03:42:46.834Z,11.65
2023-03-24T03:45:15.033Z,11.64
2023-03-24T03:47:42.307Z,11.59
2023-03-24T03:50:10.052Z,11.58
2023-03-24T03:52:39.630Z,11.55
2023-03-24T03:55:07.333Z,11.54
2023-03-24T03:57:35.994Z,11.49
2023-03-24T04:00:08.300Z,11.48
2023-03-24T04:02:35.970Z,11.44
2023-03-24T04:05:07.034Z,11.39
2023-03-24T04:07:37.434Z,11.36
2023-03-24T04:10:07.970Z,11.39
2023-03-24T04:12:38.050Z,11.44
2023-03-24T04:15:05.412Z,11.44
2023-03-24T04:17:35.599Z,11.45
2023-03-24T04:20:06.777Z,11.45
2023-03-24T04:22:38.680Z,11.44
2023-03-24T04:25:06.396Z,11.45
2023-03-24T04:27:39.094Z,11.41
2023-03-24T04:30:09.220Z,11.41
2023-03-24T04:32:43.670Z,11.40
2023-03-24T04:35:14.708Z,11.39
2023-03-24T04:37:42.439Z,11.39
2023-03-24T04:40:11.690Z,11.35
2023-03-24T04:42:43.102Z,11.31
2023-03-24T04:45:10.788Z,11.30
2023-03-24T04:47:43.525Z,11.30
2023-03-24T04:50:13.034Z,11.33
2023-03-24T04:52:40.986Z,11.35
2023-03-24T04:55:11.448Z,11.33
2023-03-24T04:57:38.539Z,11.28
2023-03-24T05:00:08.657Z,11.27
2023-03-24T05:02:36.204Z,11.26
2023-03-24T05:05:03.516Z,11.22
2023-03-24T05:07:30.467Z,11.23
2023-03-24T05:09:57.901Z,11.21
2023-03-24T05:12:24.894Z,11.20
2023-03-24T05:14:52.012Z,11.18
2023-03-24T05:17:19.121Z,11.17
2023-03-24T05:19:46.295Z,11.17
2023-03-24T05:22:13.348Z,11.17
2023-03-24T05:24:40.920Z,11.15
2023-03-24T05:27:08.131Z,11.15
2023-03-24T05:29:35.328Z,11.13
2023-03-24T05:32:02.264Z,11.10
2023-03-24T05:34:29.328Z,11.12
2023-03-24T05:36:56.384Z,11.11
2023-03-24T05:39:23.329Z,11.11
2023-03-24T05:41:50.461Z,11.08
2023-03-24T05:44:17.652Z,11.09
2023-03-24T05:46:44.685Z,11.10
2023-03-24T05:49:11.732Z,11.12
2023-03-24T05:51:38.766Z,11.09
2023-03-24T05:54:06.522Z,11.05
2023-03-24T05:56:33.735Z,11.07
2023-03-24T05:59:00.703Z,11.09
2023-03-24T06:01:31.568Z,11.12
2023-03-24T06:03:58.776Z,11.06
2023-03-24T06:06:26.636Z,11.05
2023-03-24T06:08:55.011Z,11.06
2023-03-24T06:11:22.426Z,11.11
2023-03-24T06:13:49.526Z,11.12
2023-03-24T06:16:19.248Z,11.08
2023-03-24T06:18:53.380Z,11.10
2023-03-24T06:21:20.946Z,11.17
2023-03-24T06:23:48.200Z,11.20
2023-03-24T06:26:15.437Z,11.23
2023-03-24T06:28:43.564Z,11.21
2023-03-24T06:31:15.498Z,11.24
2023-03-24T06:33:42.961Z,11.27
2023-03-24T06:36:11.049Z,11.30
2023-03-24T06:38:38.144Z,11.36
2023-03-24T06:41:05.924Z,11.39
2023-03-24T06:43:33.262Z,11.44
2023-03-24T06:46:00.418Z,11.48
2023-03-24T06:48:27.915Z,11.48
2023-03-24T06:50:55.484Z,11.52
2023-03-24T06:53:23.012Z,11.59
2023-03-24T06:55:50.385Z,11.66
2023-03-24T06:58:18.331Z,11.69
2023-03-24T07:00:47.330Z,11.72
2023-03-24T07:03:16.519Z,11.79
2023-03-24T07:05:45.031Z,11.81
2023-03-24T07:10:51.583Z,11.83
2023-03-24T07:13:18.688Z,11.89
2023-03-24T07:15:46.131Z,12.02
2023-03-24T07:18:14.042Z,12.44
2023-03-24T07:20:42.089Z,12.81
2023-03-24T07:23:09.346Z,12.91
2023-03-24T07:25:36.650Z,12.97
2023-03-24T07:28:03.854Z,12.95
2023-03-24T07:30:39.895Z,12.97
2023-03-24T07:33:11.201Z,13.05
2023-03-24T07:35:38.692Z,13.14
2023-03-24T07:38:05.864Z,13.17
2023-03-24T07:40:35.512Z,13.15
2023-03-24T07:43:05.489Z,13.19
2023-03-24T07:45:33.132Z,13.23
2023-03-24T07:48:02.618Z,13.28
2023-03-24T07:50:30.345Z,13.49
2023-03-24T07:52:59.986Z,13.76
2023-03-24T07:55:27.662Z,13.84
2023-03-24T07:57:54.899Z,14.19
2023-03-24T08:00:22.252Z,14.57
2023-03-24T08:02:50.766Z,14.70
2023-03-24T08:05:19.955Z,15.22
2023-03-24T08:07:53.753Z,15.47
2023-03-24T08:10:22.158Z,15.15
2023-03-24T08:12:49.279Z,14.95
2023-03-24T08:15:16.885Z,14.80
2023-03-24T08:17:44.250Z,14.72
2023-03-24T08:20:15.243Z,14.62
2023-03-24T08:22:43.467Z,14.54
2023-03-24T08:25:11.382Z,14.50
2023-03-24T08:27:39.871Z,14.80
2023-03-24T08:30:07.709Z,15.43
2023-03-24T08:32:35.344Z,15.57
2023-03-24T08:35:05.421Z,15.40
2023-03-24T08:37:32.783Z,15.24
2023-03-24T08:40:12.696Z,15.09
2023-03-24T08:42:40.092Z,15.04
2023-03-24T08:45:07.878Z,14.94
2023-03-24T08:47:35.084Z,14.85
2023-03-24T08:50:02.244Z,14.80
2023-03-24T08:52:29.436Z,14.78
2023-03-24T08:54:56.887Z,14.80
2023-03-24T08:57:24.044Z,14.80
2023-03-24T08:59:51.516Z,14.77
2023-03-24T09:02:19.209Z,14.78
2023-03-24T09:04:46.812Z,14.84
2023-03-24T09:07:13.932Z,14.92
2023-03-24T09:09:41.268Z,14.96
2023-03-24T09:12:08.499Z,14.95
2023-03-24T09:14:35.851Z,14.95
2023-03-24T09:17:03.644Z,14.92
2023-03-24T09:19:32.475Z,14.96
2023-03-24T09:21:59.928Z,15.09
2023-03-24T09:24:27.147Z,15.18
2023-03-24T09:26:54.579Z,15.20
2023-03-24T09:29:21.843Z,15.26
2023-03-24T09:31:49.017Z,15.29
2023-03-24T09:34:17.195Z,15.29
2023-03-24T09:36:44.047Z,15.29
2023-03-24T09:39:11.191Z,15.29
2023-03-24T09:41:38.330Z,15.25
2023-03-24T09:44:19.181Z,15.11
2023-03-24T09:46:49.047Z,14.96
2023-03-24T09:51:45.208Z,14.88
2023-03-24T09:54:16.833Z,14.86
2023-03-24T09:56:46.740Z,14.88
2023-03-24T09:59:18.513Z,14.90
2023-03-24T10:01:45.933Z,14.92
2023-03-24T10:04:16.300Z,14.97
2023-03-24T10:06:44.145Z,15.05
2023-03-24T10:09:14.145Z,15.14
2023-03-24T10:14:11.931Z,15.20
2023-03-24T10:16:40.754Z,15.25
2023-03-24T10:19:11.572Z,15.26
2023-03-24T10:21:42.311Z,15.27
2023-03-24T10:24:13.929Z,15.30
2023-03-24T10:26:46.161Z,15.38
2023-03-24T10:29:17.421Z,15.45
2023-03-24T10:31:48.011Z,15.53
2023-03-24T10:39:19.626Z,15.82
2023-03-24T10:41:50.923Z,15.91
2023-03-24T10:44:19.071Z,15.98
2023-03-24T10:46:48.010Z,15.98
2023-03-24T10:49:18.584Z,15.94
2023-03-24T10:51:47.295Z,15.88
2023-03-24T10:59:18.830Z,15.38
2023-03-24T11:01:46.937Z,15.19
2023-03-24T11:04:17.367Z,15.11
2023-03-24T11:06:50.253Z,15.02
2023-03-24T11:09:18.012Z,15.03
2023-03-24T11:11:45.227Z,15.01
2023-03-24T11:14:16.286Z,15.05
2023-03-24T11:16:44.429Z,15.14
2023-03-24T11:19:21.744Z,15.20
2023-03-24T11:21:50.477Z,15.33
2023-03-24T11:24:19.021Z,15.39
2023-03-24T11:26:48.998Z,15.51
2023-03-24T11:29:18.986Z,15.58
2023-03-24T11:31:51.975Z,15.64
2023-03-24T11:34:20.963Z,15.69
2023-03-24T11:39:20.460Z,15.72
2023-03-24T11:41:53.296Z,15.79
2023-03-24T11:44:23.272Z,15.84
2023-03-24T11:46:53.851Z,15.90
2023-03-24T11:49:23.044Z,15.93
2023-03-24T11:51:52.275Z,16.03
2023-03-24T11:54:19.127Z,16.10
2023-03-24T11:56:48.481Z,16.08
2023-03-24T11:59:18.777Z,16.02
2023-03-24T12:01:51.617Z,15.95
2023-03-24T12:04:21.732Z,15.91
2023-03-24T12:09:20.387Z,15.82
2023-03-24T12:14:19.873Z,15.94
2023-03-24T12:16:52.545Z,15.99
2023-03-24T12:19:20.097Z,15.92
2023-03-24T12:21:50.241Z,15.78
2023-03-24T12:24:18.653Z,15.76
2023-03-24T12:26:46.339Z,15.70
2023-03-24T12:29:16.980Z,15.61
2023-03-24T12:34:14.357Z,15.53
2023-03-24T12:36:44.297Z,15.53
2023-03-24T12:44:11.444Z,15.44
2023-03-24T12:49:16.518Z,15.24
2023-03-24T12:51:47.243Z,15.11
2023-03-24T12:54:20.654Z,14.89
2023-03-24T12:56:49.764Z,14.69
2023-03-24T12:59:19.994Z,14.41
2023-03-24T13:01:53.504Z,14.26
2023-03-24T13:04:23.410Z,14.20
2023-03-24T13:06:55.041Z,14.31
2023-03-24T13:12:04.635Z,14.32
2023-03-24T13:14:42.637Z,14.31
2023-03-24T13:17:15.054Z,14.34
2023-03-24T13:19:42.782Z,14.35
2023-03-24T13:22:15.155Z,14.33
2023-03-24T13:24:42.524Z,14.37
2023-03-24T13:27:12.560Z,14.39
2023-03-24T13:29:49.269Z,14.46
2023-03-24T13:32:19.904Z,14.53
2023-03-24T13:34:51.685Z,14.62
2023-03-24T13:37:23.220Z,14.68
2023-03-24T13:39:56.025Z,14.81
2023-03-24T13:42:26.171Z,14.90
2023-03-24T13:47:20.686Z,15.10
2023-03-24T13:49:50.765Z,15.23
2023-03-24T13:52:21.358Z,15.33
2023-03-24T13:54:49.115Z,15.43
2023-03-24T13:57:21.194Z,15.37
2023-03-24T13:59:48.554Z,15.37
2023-03-24T14:02:18.848Z,15.21
2023-03-24T14:04:46.092Z,14.88
2023-03-24T14:07:16.185Z,14.47
2023-03-24T14:09:57.612Z,14.14
2023-03-24T14:12:24.668Z,13.97
2023-03-24T14:15:00.182Z,13.90
2023-03-24T14:19:57.666Z,13.75
2023-03-24T14:22:30.122Z,13.71
2023-03-24T14:24:59.059Z,13.74
2023-03-24T14:27:29.854Z,13.83
2023-03-24T14:32:27.495Z,13.79
2023-03-24T14:34:58.732Z,13.76
2023-03-24T14:37:28.024Z,13.79
2023-03-24T14:39:57.870Z,13.87
2023-03-24T14:42:28.979Z,13.95
2023-03-24T14:44:57.547Z,14.10
2023-03-24T14:47:29.637Z,14.27
2023-03-24T14:49:57.644Z,14.41
2023-03-24T14:52:30.689Z,14.45
2023-03-24T14:55:00.774Z,14.47
2023-03-24T14:57:28.301Z,14.50
2023-03-24T14:59:56.008Z,14.57
2023-03-24T15:02:26.495Z,14.53
2023-03-24T15:07:29.988Z,14.48
2023-03-24T15:09:57.355Z,14.42
2023-03-24T15:12:25.140Z,14.40
2023-03-24T15:14:52.728Z,14.37
2023-03-24T15:19:53.326Z,14.41
2023-03-24T15:22:21.099Z,14.39
2023-03-24T15:24:49.217Z,14.32
2023-03-24T15:27:16.331Z,14.23
2023-03-24T15:29:43.508Z,14.10
2023-03-24T15:32:13.929Z,13.94
2023-03-24T15:37:12.136Z,13.60
2023-03-24T15:42:09.698Z,13.45
2023-03-24T15:49:34.186Z,13.28
2023-03-24T15:52:02.453Z,13.20
2023-03-24T15:54:32.488Z,13.19
2023-03-24T15:57:01.401Z,13.17
2023-03-24T15:59:32.226Z,13.15
2023-03-24T16:01:59.913Z,13.12
2023-03-24T16:06:58.131Z,13.03
2023-03-24T16:09:28.306Z,13.01
2023-03-24T16:11:55.275Z,13.02
2023-03-24T16:14:22.719Z,13.05
2023-03-24T16:16:53.767Z,13.06
2023-03-24T16:19:21.542Z,13.06
2023-03-24T16:21:48.631Z,13.07
2023-03-24T16:24:16.343Z,13.11
2023-03-24T16:26:44.099Z,13.18
2023-03-24T16:29:14.490Z,13.18
2023-03-24T16:34:09.248Z,13.19
2023-03-24T16:36:36.738Z,13.22
2023-03-24T16:39:04.253Z,13.21
2023-03-24T16:41:31.696Z,13.25
2023-03-24T16:43:59.026Z,13.23
2023-03-24T16:48:53.944Z,13.37
2023-03-24T16:53:48.278Z,13.08
2023-03-24T17:03:50.103Z,12.36
2023-03-24T17:06:17.918Z,12.25
2023-03-24T17:08:45.547Z,12.15
2023-03-24T17:11:12.762Z,12.08
2023-03-24T17:16:06.735Z,12.08
2023-03-24T17:18:34.108Z,12.08
2023-03-24T17:21:02.072Z,12.08
2023-03-24T17:23:30.889Z,12.07
2023-03-24T17:25:58.060Z,11.99
2023-03-24T17:28:24.976Z,11.93
2023-03-24T17:30:52.497Z,11.89
2023-03-24T17:33:19.721Z,11.92
2023-03-24T17:35:47.143Z,11.91
2023-03-24T17:38:17.067Z,11.94
2023-03-24T17:45:39.921Z,11.87
2023-03-24T17:48:08.170Z,11.85
2023-03-24T17:53:03.287Z,11.81
2023-03-24T17:55:30.717Z,11.76
2023-03-24T17:57:57.854Z,11.69
2023-03-24T18:00:24.967Z,11.69
2023-03-24T18:02:53.057Z,11.70
2023-03-24T18:05:20.503Z,11.73
2023-03-24T18:07:48.079Z,11.75
2023-03-24T18:10:15.936Z,11.78
2023-03-24T18:12:43.449Z,11.79
2023-03-24T18:15:11.534Z,11.78
2023-03-24T18:20:10.454Z,11.78
2023-03-24T18:22:38.091Z,11.80
2023-03-24T18:25:05.416Z,11.85
2023-03-24T18:27:33.094Z,11.82
2023-03-24T18:30:00.309Z,11.83
2023-03-24T18:32:27.888Z,11.84
2023-03-24T18:34:55.001Z,11.84
2023-03-24T18:37:22.120Z,11.75
2023-03-24T18:39:49.607Z,11.69
2023-03-24T18:42:16.932Z,11.67
2023-03-24T18:44:45.416Z,11.64
2023-03-24T18:47:13.671Z,11.59
2023-03-24T18:49:41.217Z,11.54
2023-03-24T18:52:09.765Z,11.53
2023-03-24T18:54:35.442Z,11.50
2023-03-24T18:57:04.799Z,11.40
2023-03-24T18:59:31.930Z,11.35
2023-03-24T19:02:00.862Z,11.35
2023-03-24T19:04:28.672Z,11.36
2023-03-24T19:06:56.877Z,11.32
2023-03-24T19:09:26.445Z,11.30
2023-03-24T19:11:53.426Z,11.28
2023-03-24T19:14:20.479Z,11.29
2023-03-24T19:19:14.547Z,11.21
2023-03-24T19:21:42.142Z,11.17
2023-03-24T19:24:30.828Z,11.15
2023-03-24T19:27:00.017Z,11.18
2023-03-24T19:29:28.776Z,11.19
2023-03-24T19:31:56.122Z,11.18
2023-03-24T19:34:23.381Z,11.21
2023-03-24T19:36:50.553Z,11.19
2023-03-24T19:41:44.861Z,11.15
2023-03-24T19:44:11.991Z,11.15
2023-03-24T19:46:39.005Z,11.17
2023-03-24T19:49:06.652Z,11.20
2023-03-24T19:51:33.743Z,11.22
2023-03-24T19:54:00.900Z,11.26
2023-03-24T19:56:27.773Z,11.28
2023-03-24T20:01:21.754Z,11.26
2023-03-24T20:03:49.229Z,11.26
2023-03-24T20:06:17.867Z,11.25
2023-03-24T20:08:46.583Z,11.27
2023-03-24T20:11:13.473Z,11.30
2023-03-24T20:13:40.397Z,11.33
2023-03-24T20:16:07.268Z,11.30
2023-03-24T20:18:35.143Z,11.25
2023-03-24T20:21:02.427Z,11.27
2023-03-24T20:23:29.458Z,11.26
2023-03-24T20:25:58.732Z,11.26
2023-03-24T20:28:25.905Z,11.27
2023-03-24T20:30:58.607Z,11.28
2023-03-24T20:33:28.923Z,11.29
2023-03-24T20:35:57.009Z,11.29
2023-03-24T20:38:24.493Z,11.34
2023-03-24T20:40:54.387Z,11.36
2023-03-24T20:43:21.351Z,11.38
2023-03-24T20:45:48.596Z,11.37
2023-03-24T20:48:15.758Z,11.39
2023-03-24T20:50:43.656Z,11.40
2023-03-24T20:53:10.605Z,11.35
2023-03-24T20:55:37.888Z,11.32
2023-03-24T20:58:08.432Z,11.28
2023-03-24T21:00:38.208Z,11.29
2023-03-24T21:03:05.298Z,11.24
2023-03-24T21:05:32.935Z,11.27
2023-03-24T21:10:27.457Z,11.31
2023-03-24T21:12:55.724Z,11.32
2023-03-24T21:15:25.637Z,11.26
2023-03-24T21:22:54.445Z,11.18
2023-03-24T21:25:23.285Z,11.19
2023-03-24T21:27:50.386Z,11.23
2023-03-24T21:30:19.430Z,11.22
2023-03-24T21:32:47.293Z,11.26
2023-03-24T21:35:14.941Z,11.23
2023-03-24T21:37:46.093Z,11.22
2023-03-24T21:40:15.543Z,11.23
2023-03-24T21:42:47.130Z,11.31
2023-03-24T21:47:43.022Z,11.36
2023-03-24T21:50:11.788Z,11.40
2023-03-24T21:52:46.201Z,11.45
2023-03-24T21:55:15.081Z,11.46
2023-03-24T21:57:43.158Z,11.48
2023-03-24T22:00:15.290Z,11.48
2023-03-24T22:02:45.812Z,11.48
2023-03-24T22:05:14.351Z,11.45
2023-03-24T22:07:41.970Z,11.47
2023-03-24T22:12:35.750Z,11.48
2023-03-24T22:15:02.871Z,11.53
2023-03-24T22:17:29.870Z,11.56
2023-03-24T22:19:56.809Z,11.57
2023-03-24T22:22:24.098Z,11.55
2023-03-24T22:24:51.716Z,11.54
2023-03-24T22:27:19.214Z,11.51
2023-03-24T22:29:46.018Z,11.49
2023-03-24T22:34:38.388Z,11.41
2023-03-24T22:37:05.238Z,11.37
2023-03-24T22:39:33.600Z,11.38
2023-03-24T22:42:01.523Z,11.37
2023-03-24T22:44:28.700Z,11.36
2023-03-24T22:46:55.738Z,11.36
2023-03-24T22:49:22.859Z,11.37
2023-03-24T22:51:50.064Z,11.38
2023-03-24T22:54:16.926Z,11.38
2023-03-24T22:56:43.924Z,11.39
2023-03-24T22:59:11.057Z,11.43
2023-03-24T23:01:37.929Z,11.40
2023-03-24T23:04:04.867Z,11.43
2023-03-24T23:09:00.649Z,11.43
2023-03-24T23:11:29.802Z,11.41
2023-03-24T23:14:05.307Z,11.41
2023-03-24T23:16:33.598Z,11.43
2023-03-24T23:19:01.032Z,11.39
2023-03-24T23:21:28.766Z,11.40
2023-03-24T23:23:55.689Z,11.38
2023-03-24T23:26:26.088Z,11.38
2023-03-24T23:28:53.980Z,11.40
2023-03-24T23:31:23.226Z,11.38
2023-03-24T23:36:19.304Z,11.42
2023-03-24T23:38:48.191Z,11.46
2023-03-24T23:41:15.312Z,11.45
2023-03-24T23:43:42.178Z,11.45
2023-03-24T23:46:09.551Z,11.44
2023-03-24T23:48:37.767Z,11.42
2023-03-24T23:51:07.818Z,11.42
2023-03-24T23:53:35.579Z,11.40
2023-03-24T23:56:07.036Z,11.37
2023-03-24T23:58:35.962Z,11.37
